createdAt,value
2023-02-03T00:00:31.793Z,102252.53
2023-02-03T00:02:59.658Z,102247.19
2023-02-03T00:05:29.473Z,102241.88
2023-02-03T00:07:57.508Z,102240.94
2023-02-03T00:10:25.662Z,102242.72
2023-02-03T00:12:53.966Z,102241.94
2023-02-03T00:15:23.238Z,102222.34
2023-02-03T00:17:51.062Z,102228.59
2023-02-03T00:20:19.105Z,102225.91
2023-02-03T00:22:48.191Z,102212.50
2023-02-03T00:25:16.134Z,102216.09
2023-02-03T00:27:43.891Z,102221.53
2023-02-03T00:30:12.797Z,102213.56
2023-02-03T00:32:40.580Z,102210.88
2023-02-03T00:35:09.000Z,102220.63
2023-02-03T00:37:36.689Z,102231.34
2023-02-03T00:40:06.720Z,102229.56
2023-02-03T00:42:35.675Z,102234.91
2023-02-03T00:45:03.598Z,102233.09
2023-02-03T00:47:31.552Z,102238.44
2023-02-03T00:49:59.455Z,102231.34
2023-02-03T00:52:27.236Z,102233.09
2023-02-03T00:54:55.016Z,102244.72
2023-02-03T00:57:24.361Z,102250.00
2023-02-03T00:59:52.216Z,102255.34
2023-02-03T01:02:20.029Z,102274.00
2023-02-03T01:04:47.895Z,102265.97
2023-02-03T01:07:15.692Z,102278.50
2023-02-03T01:09:43.511Z,102273.13
2023-02-03T01:12:11.199Z,102279.38
2023-02-03T01:14:40.367Z,102274.09
2023-02-03T01:17:08.157Z,102274.03
2023-02-03T01:19:36.256Z,102271.44
2023-02-03T01:22:04.006Z,102270.50
2023-02-03T01:24:32.256Z,102283.00
2023-02-03T01:27:00.118Z,102288.38
2023-02-03T01:29:27.911Z,102278.59
2023-02-03T01:31:57.184Z,102277.66
2023-02-03T01:34:24.980Z,102283.03
2023-02-03T01:36:53.323Z,102281.25
2023-02-03T01:39:21.555Z,102276.84
2023-02-03T01:41:49.366Z,102275.88
2023-02-03T01:44:52.446Z,102262.56
2023-02-03T01:47:29.540Z,102266.09
2023-02-03T01:50:04.009Z,102266.16
2023-02-03T01:52:33.673Z,102280.41
2023-02-03T01:55:06.310Z,102290.25
2023-02-03T01:57:37.855Z,102276.91
2023-02-03T02:00:08.208Z,102280.56
2023-02-03T02:02:38.147Z,102264.59
2023-02-03T02:05:08.033Z,102254.81
2023-02-03T02:07:38.270Z,102245.88
2023-02-03T02:10:07.040Z,102253.88
2023-02-03T02:12:34.883Z,102236.06
2023-02-03T02:15:03.593Z,102248.47
2023-02-03T02:17:47.364Z,102231.53
2023-02-03T02:20:39.619Z,102226.16
2023-02-03T02:23:53.697Z,102219.97
2023-02-03T02:26:40.667Z,102234.16
2023-02-03T02:29:35.295Z,102237.69
2023-02-03T02:32:16.447Z,102228.81
2023-02-03T02:35:00.545Z,102219.00
2023-02-03T02:37:38.344Z,102211.97
2023-02-03T02:40:13.881Z,102214.53
2023-02-03T02:42:49.468Z,102215.31
2023-02-03T02:45:26.418Z,102201.97
2023-02-03T02:48:01.105Z,102186.94
2023-02-03T02:50:34.114Z,102187.84
2023-02-03T02:53:03.349Z,102178.06
2023-02-03T02:55:35.067Z,102183.38
2023-02-03T02:58:07.887Z,102198.38
2023-02-03T03:00:37.065Z,102194.91
2023-02-03T03:03:14.565Z,102194.06
2023-02-03T03:05:44.565Z,102222.50
2023-02-03T03:08:14.283Z,102236.78
2023-02-03T03:10:44.469Z,102240.34
2023-02-03T03:13:18.028Z,102231.47
2023-02-03T03:15:46.681Z,102225.25
2023-02-03T03:18:19.746Z,102218.97
2023-02-03T03:20:51.945Z,102210.13
2023-02-03T03:23:25.618Z,102207.28
2023-02-03T03:26:00.354Z,102203.78
2023-02-03T03:28:36.635Z,102201.97
2023-02-03T03:31:05.140Z,102215.28
2023-02-03T03:33:34.481Z,102213.59
2023-02-03T03:36:09.226Z,102217.16
2023-02-03T03:38:41.203Z,102211.84
2023-02-03T03:41:14.868Z,102202.91
2023-02-03T03:43:46.345Z,102201.16
2023-02-03T03:46:17.483Z,102195.81
2023-02-03T03:48:53.158Z,102210.00
2023-02-03T03:51:25.658Z,102213.56
2023-02-03T03:53:53.881Z,102202.91
2023-02-03T03:56:28.532Z,102211.78
2023-02-03T03:58:57.590Z,102219.00
2023-02-03T04:01:27.388Z,102220.78
2023-02-03T04:04:02.506Z,102206.53
2023-02-03T04:06:30.312Z,102222.53
2023-02-03T04:08:58.453Z,102213.63
2023-02-03T04:11:47.596Z,102214.53
2023-02-03T04:14:15.786Z,102203.06
2023-02-03T04:16:44.010Z,102203.97
2023-02-03T04:19:13.649Z,102197.66
2023-02-03T04:21:50.413Z,102207.41
2023-02-03T04:24:35.707Z,102213.63
2023-02-03T04:27:05.271Z,102216.31
2023-02-03T04:29:33.503Z,102211.81
2023-02-03T04:32:01.406Z,102213.66
2023-02-03T04:34:30.723Z,102210.94
2023-02-03T04:36:58.602Z,102211.88
2023-02-03T04:39:26.462Z,102202.16
2023-02-03T04:41:54.422Z,102201.28
2023-02-03T04:44:22.423Z,102202.13
2023-02-03T04:46:50.369Z,102196.72
2023-02-03T04:49:18.740Z,102177.19
2023-02-03T04:51:50.082Z,102178.97
2023-02-03T04:54:17.915Z,102192.31
2023-02-03T04:56:45.784Z,102163.91
2023-02-03T04:59:13.878Z,102164.75
2023-02-03T05:01:41.743Z,102164.72
2023-02-03T05:04:09.582Z,102157.63
2023-02-03T05:06:37.499Z,102167.41
2023-02-03T05:09:06.859Z,102176.28
2023-02-03T05:11:34.828Z,102165.56
2023-02-03T05:14:02.672Z,102166.53
2023-02-03T05:16:30.559Z,102177.19
2023-02-03T05:18:58.388Z,102177.19
2023-02-03T05:21:26.261Z,102173.59
2023-02-03T05:23:54.151Z,102180.78
2023-02-03T05:26:23.421Z,102186.06
2023-02-03T05:28:53.154Z,102188.72
2023-02-03T05:31:21.473Z,102184.28
2023-02-03T05:33:49.522Z,102165.69
2023-02-03T05:36:17.371Z,102181.75
2023-02-03T05:38:45.196Z,102182.59
2023-02-03T05:41:31.190Z,102180.84
2023-02-03T05:44:00.699Z,102183.44
2023-02-03T05:46:28.594Z,102184.28
2023-02-03T05:48:56.639Z,102183.47
2023-02-03T05:51:25.161Z,102182.50
2023-02-03T05:53:53.826Z,102186.19
2023-02-03T05:56:21.783Z,102182.66
2023-02-03T05:58:51.424Z,102180.06
2023-02-03T06:01:20.721Z,102170.25
2023-02-03T06:03:48.979Z,102169.31
2023-02-03T06:06:17.149Z,102179.09
2023-02-03T06:08:45.167Z,102187.16
2023-02-03T06:11:13.172Z,102184.50
2023-02-03T06:13:41.149Z,102185.38
2023-02-03T06:16:09.420Z,102184.47
2023-02-03T06:18:38.733Z,102188.03
2023-02-03T06:21:07.205Z,102174.75
2023-02-03T06:23:35.205Z,102172.97
2023-02-03T06:26:03.073Z,102173.91
2023-02-03T06:28:33.599Z,102194.34
2023-02-03T06:31:02.308Z,102194.41
2023-02-03T06:33:30.247Z,102195.31
2023-02-03T06:35:59.763Z,102192.56
2023-02-03T06:38:27.809Z,102193.41
2023-02-03T06:40:55.691Z,102194.25
2023-02-03T06:43:23.857Z,102184.53
2023-02-03T06:45:51.791Z,102193.44
2023-02-03T06:48:19.718Z,102192.53
2023-02-03T06:50:48.742Z,102196.09
2023-02-03T06:53:18.086Z,102183.59
2023-02-03T06:55:47.923Z,102197.06
2023-02-03T06:58:15.871Z,102190.75
2023-02-03T07:00:43.710Z,102176.53
2023-02-03T07:03:11.445Z,102190.72
2023-02-03T07:05:40.721Z,102195.19
2023-02-03T07:08:08.468Z,102188.97
2023-02-03T07:10:37.556Z,102194.28
2023-02-03T07:13:05.919Z,102185.41
2023-02-03T07:15:33.727Z,102195.28
2023-02-03T07:18:01.478Z,102195.31
2023-02-03T07:20:30.256Z,102189.94
2023-02-03T07:22:59.294Z,102198.03
2023-02-03T07:25:27.341Z,102193.53
2023-02-03T07:27:56.612Z,102195.31
2023-02-03T07:30:24.475Z,102197.06
2023-02-03T07:32:53.525Z,102188.16
2023-02-03T07:35:21.755Z,102189.06
2023-02-03T07:37:49.595Z,102194.47
2023-02-03T07:40:17.931Z,102209.56
2023-02-03T07:42:46.220Z,102216.75
2023-02-03T07:45:17.008Z,102215.91
2023-02-03T07:47:45.274Z,102213.25
2023-02-03T07:50:13.412Z,102213.16
2023-02-03T07:52:41.312Z,102225.66
2023-02-03T07:55:10.177Z,102214.97
2023-02-03T07:57:38.132Z,102207.00
2023-02-03T08:00:06.607Z,102214.06
2023-02-03T08:02:35.768Z,102215.03
2023-02-03T08:05:03.568Z,102211.47
2023-02-03T08:07:31.396Z,102216.78
2023-02-03T08:09:59.187Z,102210.63
2023-02-03T08:12:27.094Z,102217.75
2023-02-03T08:14:54.898Z,102217.75
2023-02-03T08:17:22.766Z,102221.28
2023-02-03T08:19:52.170Z,102217.81
2023-02-03T08:22:20.236Z,102231.22
2023-02-03T08:24:48.661Z,102233.97
2023-02-03T08:27:17.992Z,102235.63
2023-02-03T08:29:47.066Z,102241.00
2023-02-03T08:32:16.576Z,102233.94
2023-02-03T08:34:44.426Z,102220.69
2023-02-03T08:37:15.904Z,102226.91
2023-02-03T08:39:45.038Z,102227.03
2023-02-03T08:42:12.829Z,102224.44
2023-02-03T08:44:40.682Z,102228.84
2023-02-03T08:47:08.989Z,102232.44
2023-02-03T08:49:39.522Z,102224.34
2023-02-03T08:52:09.144Z,102242.06
2023-02-03T08:54:38.748Z,102237.69
2023-02-03T08:57:07.271Z,102231.50
2023-02-03T08:59:36.364Z,102236.88
2023-02-03T09:02:04.507Z,102238.69
2023-02-03T09:04:33.466Z,102235.16
2023-02-03T09:07:03.447Z,102234.25
2023-02-03T09:09:32.058Z,102245.91
2023-02-03T09:12:05.309Z,102243.34
2023-02-03T09:14:34.362Z,102232.66
2023-02-03T09:17:03.270Z,102246.97
2023-02-03T09:19:32.268Z,102254.97
2023-02-03T09:22:01.133Z,102248.69
2023-02-03T09:24:29.147Z,102240.69
2023-02-03T09:26:57.016Z,102253.19
2023-02-03T09:29:26.058Z,102256.72
2023-02-03T09:31:53.915Z,102252.28
2023-02-03T09:34:22.350Z,102259.38
2023-02-03T09:36:51.326Z,102264.72
2023-02-03T09:39:19.146Z,102259.50
2023-02-03T09:42:20.804Z,102259.47
2023-02-03T09:44:57.719Z,102251.41
2023-02-03T09:47:29.589Z,102263.94
2023-02-03T09:50:00.283Z,102268.38
2023-02-03T09:52:31.908Z,102256.06
2023-02-03T09:55:04.257Z,102259.59
2023-02-03T09:57:36.588Z,102246.28
2023-02-03T10:00:18.050Z,102235.66
2023-02-03T10:02:56.863Z,102243.75
2023-02-03T10:05:37.131Z,102256.25
2023-02-03T10:08:17.485Z,102257.19
2023-02-03T10:11:09.453Z,102252.69
2023-02-03T10:13:50.822Z,102252.72
2023-02-03T10:16:31.461Z,102259.84
2023-02-03T10:19:04.382Z,102248.25
2023-02-03T10:21:37.090Z,102259.88
2023-02-03T10:24:10.731Z,102259.00
2023-02-03T10:26:40.951Z,102268.72
2023-02-03T10:29:19.355Z,102272.28
2023-02-03T10:31:49.196Z,102259.84
2023-02-03T10:34:19.817Z,102266.88
2023-02-03T10:36:56.876Z,102271.47
2023-02-03T10:39:37.962Z,102274.13
2023-02-03T10:42:07.240Z,102280.28
2023-02-03T10:44:39.456Z,102271.44
2023-02-03T10:47:24.644Z,102275.88
2023-02-03T10:49:53.738Z,102259.03
2023-02-03T10:52:31.088Z,102265.34
2023-02-03T10:55:00.333Z,102257.28
2023-02-03T10:57:30.943Z,102258.28
2023-02-03T11:00:22.453Z,102268.03
2023-02-03T11:02:58.333Z,102258.19
2023-02-03T11:05:26.397Z,102256.47
2023-02-03T11:07:55.068Z,102268.13
2023-02-03T11:10:34.273Z,102277.06
2023-02-03T11:13:14.589Z,102272.50
2023-02-03T11:15:52.534Z,102278.75
2023-02-03T11:18:39.013Z,102267.19
2023-02-03T11:21:17.396Z,102270.72
2023-02-03T11:23:55.909Z,102266.25
2023-02-03T11:26:27.507Z,102280.59
2023-02-03T11:28:59.435Z,102303.78
2023-02-03T11:31:29.336Z,102286.88
2023-02-03T11:34:03.507Z,102283.41
2023-02-03T11:36:33.795Z,102295.00
2023-02-03T11:39:21.435Z,102290.59
2023-02-03T11:41:49.995Z,102296.84
2023-02-03T11:44:22.834Z,102283.47
2023-02-03T11:46:54.924Z,102287.13
2023-02-03T11:49:52.352Z,102292.50
2023-02-03T11:52:48.757Z,102277.31
2023-02-03T11:55:25.410Z,102285.31
2023-02-03T11:58:08.211Z,102282.66
2023-02-03T12:00:42.448Z,102269.28
2023-02-03T12:03:30.825Z,102278.28
2023-02-03T12:06:25.536Z,102285.41
2023-02-03T12:09:07.358Z,102290.72
2023-02-03T12:11:50.523Z,102294.41
2023-02-03T12:14:33.610Z,102305.91
2023-02-03T12:17:23.794Z,102309.41
2023-02-03T12:20:07.640Z,102302.22
2023-02-03T12:22:45.089Z,102308.50
2023-02-03T12:25:34.581Z,102305.81
2023-02-03T12:28:27.446Z,102309.41
2023-02-03T12:31:04.974Z,102314.78
2023-02-03T12:33:39.402Z,102305.94
2023-02-03T12:36:11.469Z,102312.25
2023-02-03T12:38:45.322Z,102299.75
2023-02-03T12:41:17.335Z,102300.41
2023-02-03T12:43:49.299Z,102305.81
2023-02-03T12:46:20.701Z,102302.22
2023-02-03T12:48:54.513Z,102301.31
2023-02-03T12:51:32.112Z,102306.72
2023-02-03T12:54:05.245Z,102312.09
2023-02-03T12:56:40.890Z,102314.78
2023-02-03T12:59:16.679Z,102320.06
2023-02-03T13:01:50.734Z,102308.56
2023-02-03T13:04:27.237Z,102312.16
2023-02-03T13:07:01.587Z,102309.47
2023-02-03T13:09:34.747Z,102299.78
2023-02-03T13:12:09.999Z,102283.78
2023-02-03T13:14:43.416Z,102296.31
2023-02-03T13:17:16.871Z,102301.72
2023-02-03T13:19:49.632Z,102296.44
2023-02-03T13:22:18.378Z,102297.31
2023-02-03T13:24:51.016Z,102293.63
2023-02-03T13:27:43.335Z,102289.22
2023-02-03T13:30:43.738Z,102297.31
2023-02-03T13:33:56.662Z,102283.09
2023-02-03T13:36:42.519Z,102270.63
2023-02-03T13:39:37.472Z,102271.56
2023-02-03T13:42:31.329Z,102284.81
2023-02-03T13:45:05.617Z,102282.13
2023-02-03T13:47:34.252Z,102307.97
2023-02-03T13:50:05.708Z,102294.50
2023-02-03T13:52:37.869Z,102298.09
2023-02-03T13:55:07.131Z,102298.09
2023-02-03T13:57:38.975Z,102314.91
2023-02-03T14:00:28.804Z,102313.97
2023-02-03T14:02:57.450Z,102343.16
2023-02-03T14:05:48.897Z,102339.88
2023-02-03T14:08:51.903Z,102330.91
2023-02-03T14:11:41.289Z,102338.44
2023-02-03T14:14:45.513Z,102344.44
2023-02-03T14:18:03.727Z,102341.44
2023-02-03T14:20:51.092Z,102344.13
2023-02-03T14:23:27.246Z,102361.56
2023-02-03T14:25:58.354Z,102367.03
2023-02-03T14:28:30.882Z,102359.25
2023-02-03T14:31:07.691Z,102375.16
2023-02-03T14:34:12.950Z,102374.19
2023-02-03T14:36:48.092Z,102380.53
2023-02-03T14:39:56.145Z,102392.81
2023-02-03T14:42:53.867Z,102394.66
2023-02-03T14:45:40.633Z,102398.19
2023-02-03T14:48:26.551Z,102404.50
2023-02-03T14:51:09.609Z,102400.00
2023-02-03T14:54:02.510Z,102400.19
2023-02-03T14:56:55.688Z,102397.53
2023-02-03T14:59:27.433Z,102405.56
2023-02-03T15:02:17.018Z,102407.41
2023-02-03T15:04:46.943Z,102418.94
2023-02-03T15:07:37.833Z,102420.75
2023-02-03T15:10:13.975Z,102421.69
2023-02-03T15:12:46.681Z,102425.31
2023-02-03T15:15:19.905Z,102432.41
2023-02-03T15:17:47.583Z,102436.03
2023-02-03T15:20:33.619Z,102439.81
2023-02-03T15:23:01.489Z,102433.53
2023-02-03T15:25:31.195Z,102433.53
2023-02-03T15:28:16.837Z,102436.31
2023-02-03T15:30:45.548Z,102431.81
2023-02-03T15:33:16.212Z,102435.41
2023-02-03T15:35:49.002Z,102434.44
2023-02-03T15:38:21.962Z,102443.16
2023-02-03T15:40:54.596Z,102442.34
2023-02-03T15:43:25.872Z,102447.84
2023-02-03T15:46:06.349Z,102453.13
2023-02-03T15:48:38.475Z,102454.97
2023-02-03T15:51:12.003Z,102446.19
2023-02-03T15:53:49.578Z,102439.03
2023-02-03T15:56:23.611Z,102447.13
2023-02-03T15:58:51.661Z,102443.50
2023-02-03T16:01:26.043Z,102449.69
2023-02-03T16:03:56.146Z,102459.56
2023-02-03T16:06:30.331Z,102470.19
2023-02-03T16:08:59.556Z,102474.72
2023-02-03T16:11:33.537Z,102484.41
2023-02-03T16:14:03.383Z,102485.25
2023-02-03T16:16:36.267Z,102492.38
2023-02-03T16:19:06.416Z,102491.34
2023-02-03T16:21:52.813Z,102484.28
2023-02-03T16:24:38.766Z,102493.22
2023-02-03T16:27:31.420Z,102497.75
2023-02-03T16:30:39.536Z,102501.13
2023-02-03T16:33:32.780Z,102509.13
2023-02-03T16:36:21.951Z,102506.50
2023-02-03T16:39:09.751Z,102518.88
2023-02-03T16:41:55.389Z,102510.91
2023-02-03T16:44:40.699Z,102519.88
2023-02-03T16:47:41.784Z,102522.59
2023-02-03T16:50:38.292Z,102519.03
2023-02-03T16:53:11.011Z,102526.06
2023-02-03T16:55:40.048Z,102528.75
2023-02-03T16:58:08.307Z,102535.97
2023-02-03T17:00:36.301Z,102533.28
2023-02-03T17:03:05.597Z,102544.78
2023-02-03T17:05:38.027Z,102548.41
2023-02-03T17:08:05.653Z,102543.94
2023-02-03T17:10:35.265Z,102549.28
2023-02-03T17:13:04.598Z,102550.97
2023-02-03T17:15:32.555Z,102550.94
2023-02-03T17:18:00.375Z,102550.06
2023-02-03T17:20:28.097Z,102550.88
2023-02-03T17:22:56.031Z,102551.78
2023-02-03T17:25:23.793Z,102560.66
2023-02-03T17:27:51.550Z,102559.69
2023-02-03T17:30:20.822Z,102558.75
2023-02-03T17:32:48.476Z,102565.81
2023-02-03T17:35:16.337Z,102564.97
2023-02-03T17:37:44.033Z,102564.97
2023-02-03T17:54:06.061Z,102611.13
2023-02-03T17:56:35.669Z,102600.41
2023-02-03T17:59:05.427Z,102609.22
2023-02-03T18:01:34.458Z,102610.91
2023-02-03T18:04:04.604Z,102624.22
2023-02-03T18:06:35.070Z,102617.91
2023-02-03T18:09:02.778Z,102621.38
2023-02-03T18:11:31.568Z,102619.47
2023-02-03T18:13:59.322Z,102622.97
2023-02-03T18:16:29.251Z,102632.56
2023-02-03T18:18:58.316Z,102628.00
2023-02-03T18:21:27.207Z,102632.47
2023-02-03T18:23:59.349Z,102639.50
2023-02-03T18:26:28.687Z,102636.81
2023-02-03T18:28:56.637Z,102642.06
2023-02-03T18:31:25.211Z,102643.69
2023-02-03T18:33:53.671Z,102644.44
2023-02-03T18:36:22.895Z,102652.41
2023-02-03T18:38:50.563Z,102651.59
2023-02-03T18:41:19.430Z,102649.69
2023-02-03T18:43:49.346Z,102657.63
2023-02-03T18:46:20.510Z,102660.19
2023-02-03T18:48:48.624Z,102657.63
2023-02-03T18:51:18.403Z,102655.81
2023-02-03T18:53:49.121Z,102656.75
2023-02-03T18:56:19.161Z,102657.44
2023-02-03T18:58:47.235Z,102654.66
2023-02-03T19:01:23.615Z,102651.09
2023-02-03T19:03:51.916Z,102646.72
2023-02-03T19:06:20.080Z,102663.53
2023-02-03T19:08:49.152Z,102666.28
2023-02-03T19:11:17.070Z,102668.00
2023-02-03T19:13:45.084Z,102668.97
2023-02-03T19:16:16.700Z,102674.22
2023-02-03T19:18:44.585Z,102672.41
2023-02-03T19:21:12.735Z,102677.81
2023-02-03T19:23:42.073Z,102688.50
2023-02-03T19:26:11.991Z,102694.66
2023-02-03T19:28:39.932Z,102708.88
2023-02-03T19:31:09.883Z,102704.31
2023-02-03T19:33:38.148Z,102712.44
2023-02-03T19:36:06.542Z,102708.81
2023-02-03T19:38:34.235Z,102707.78
2023-02-03T19:41:02.470Z,102707.84
2023-02-03T19:43:32.315Z,102713.25
2023-02-03T19:46:00.498Z,102724.94
2023-02-03T19:48:28.207Z,102724.06
2023-02-03T19:50:55.878Z,102728.44
2023-02-03T19:53:24.254Z,102739.06
2023-02-03T19:55:52.027Z,102731.88
2023-02-03T19:58:19.789Z,102744.19
2023-02-03T20:00:48.847Z,102750.31
2023-02-03T20:03:17.621Z,102750.22
2023-02-03T20:05:45.366Z,102751.91
2023-02-03T20:08:14.832Z,102757.97
2023-02-03T20:10:44.510Z,102760.63
2023-02-03T20:13:12.686Z,102754.50
2023-02-03T20:15:40.380Z,102757.19
2023-02-03T20:18:09.629Z,102760.72
2023-02-03T20:20:37.502Z,102762.50
2023-02-03T20:23:05.253Z,102758.06
2023-02-03T20:25:32.884Z,102749.97
2023-02-03T20:28:02.468Z,102764.13
2023-02-03T20:30:30.732Z,102763.22
2023-02-03T20:32:58.825Z,102771.22
2023-02-03T20:35:28.393Z,102771.13
2023-02-03T20:37:56.210Z,102768.47
2023-02-03T20:40:26.613Z,102772.00
2023-02-03T20:42:54.628Z,102771.97
2023-02-03T20:45:24.361Z,102766.63
2023-02-03T20:47:52.339Z,102772.81
2023-02-03T20:50:25.252Z,102771.03
2023-02-03T20:52:58.033Z,102780.84
2023-02-03T20:55:25.658Z,102783.53
2023-02-03T20:57:55.818Z,102781.84
2023-02-03T21:00:26.171Z,102785.38
2023-02-03T21:03:12.269Z,102786.31
2023-02-03T21:05:41.849Z,102791.38
2023-02-03T21:08:15.697Z,102794.91
2023-02-03T21:10:44.997Z,102795.84
2023-02-03T21:13:21.106Z,102809.38
2023-02-03T21:15:49.776Z,102810.31
2023-02-03T21:18:33.758Z,102806.88
2023-02-03T21:21:02.360Z,102799.81
2023-02-03T21:23:39.778Z,102801.50
2023-02-03T21:26:17.677Z,102801.47
2023-02-03T21:28:45.817Z,102808.59
2023-02-03T21:31:24.050Z,102806.13
2023-02-03T21:33:52.882Z,102802.53
2023-02-03T21:36:22.888Z,102811.47
2023-02-03T21:38:53.565Z,102814.03
2023-02-03T21:41:22.894Z,102816.56
2023-02-03T21:43:52.480Z,102821.88
2023-02-03T21:46:25.132Z,102818.50
2023-02-03T21:48:55.417Z,102811.50
2023-02-03T21:51:26.479Z,102812.44
2023-02-03T21:53:57.973Z,102813.28
2023-02-03T21:56:28.404Z,102815.91
2023-02-03T21:58:58.989Z,102825.56
2023-02-03T22:01:28.171Z,102824.66
2023-02-03T22:03:58.852Z,102827.47
2023-02-03T22:06:40.221Z,102818.56
2023-02-03T22:09:12.160Z,102820.41
2023-02-03T22:11:40.001Z,102824.84
2023-02-03T22:14:08.301Z,102835.38
2023-02-03T22:16:36.517Z,102839.00
2023-02-03T22:19:04.400Z,102839.94
2023-02-03T22:21:32.275Z,102848.72
2023-02-03T22:24:00.096Z,102857.63
2023-02-03T22:26:29.393Z,102846.97
2023-02-03T22:28:57.192Z,102852.00
2023-02-03T22:31:25.045Z,102865.31
2023-02-03T22:33:52.877Z,102862.56
2023-02-03T22:36:23.397Z,102867.91
2023-02-03T22:38:51.201Z,102867.81
2023-02-03T22:41:20.768Z,102864.38
2023-02-03T22:43:49.940Z,102863.50
2023-02-03T22:46:17.727Z,102871.53
2023-02-03T22:48:45.553Z,102864.34
2023-02-03T22:51:13.301Z,102881.19
2023-02-03T22:53:41.013Z,102885.63
2023-02-03T22:56:08.888Z,102882.97
2023-02-03T22:58:36.626Z,102893.63
2023-02-03T23:01:06.058Z,102900.81
2023-02-03T23:03:33.910Z,102900.78
2023-02-03T23:06:01.754Z,102898.09
2023-02-03T23:08:29.442Z,102892.69
2023-02-03T23:10:57.262Z,102893.63
2023-02-03T23:13:25.286Z,102896.19
2023-02-03T23:15:53.249Z,102903.97
2023-02-03T23:18:22.283Z,102902.13
2023-02-03T23:20:49.991Z,102906.53
2023-02-03T23:23:17.691Z,102907.47
2023-02-03T23:25:46.282Z,102923.59
2023-02-03T23:28:14.146Z,102920.22
2023-02-03T23:30:41.978Z,102923.69
2023-02-03T23:33:09.746Z,102917.34
2023-02-03T23:35:46.603Z,102928.22
2023-02-03T23:38:14.914Z,102922.00
2023-02-03T23:40:42.712Z,102926.50
2023-02-03T23:43:10.435Z,102926.53
2023-02-03T23:45:38.224Z,102935.56
2023-02-03T23:48:06.802Z,102937.13
2023-02-03T23:50:34.660Z,102949.56
2023-02-03T23:53:03.785Z,102958.59
2023-02-03T23:55:31.567Z,102948.94
2023-02-03T23:57:59.280Z,102966.69
